Nelson, Illinois
Current Conditions -  °F | °C
As of 11:15 PM on Saturday 25 Oct 2014 (Local Time) from KSQI Reporting Station
Clear Clear  
Wind Chill: 46°   Ceiling: Unl
Heat Index: 48°   Visibility: 10mi
Dew Point: 32°   Wind: 6mph
Humidity: 54%   Direction: 310°NW
Pressure: 30.03"   Gusts: NA
Location:  41.8°N, 89.6°W
Report Text: KSQI 260415Z AUTO 31005KT 10SM CLR 09/00 A3003 RMK AO1
Loading
Personal Weather Stations






























Interactive Weather Map
Tropical Storm Tracking
New forecast layout! Learn more

10-Day Weather Forecast

Advertisements
Track Severe Weather on mobile